Time;durP1;ratioP1;P1;durP2;ratioP2;P2;SDS_P1;SDS_P2;PMS_P1;PMS_P2;Temp;Humidity;BMP_temperature;BMP_pressure;BME280_temperature;BME280_humidity;BME280_pressure;Samples;Min_cycle;Max_cycle;Signal;HPM_P1;HPM_P2
2021/04/22 00:05:34;;;;;;;37.17;22.37;;;;;;;8.94;73.76;98712.84;4457803;80;21163;-87
2021/04/22 00:11:37;;;;;;;32.33;20.75;;;;;;;8.91;73.77;98713.59;4410616;80;21116;-87
2021/04/22 00:17:39;;;;;;;33.08;21.27;;;;;;;8.89;74.33;98715.92;4396020;81;21215;-88
2021/04/22 00:23:40;;;;;;;37.50;23.05;;;;;;;8.87;74.54;98720.95;4401036;80;21144;-88
2021/04/22 00:29:42;;;;;;;36.25;24.02;;;;;;;8.67;74.42;98713.26;4455819;80;21149;-86
2021/04/22 00:35:44;;;;;;;33.70;20.57;;;;;;;8.53;74.75;98714.42;4447371;80;21155;-88
2021/04/22 00:41:46;;;;;;;38.75;23.05;;;;;;;8.51;75.06;98716.72;4471383;80;21153;-87
2021/04/22 00:47:47;;;;;;;36.00;22.65;;;;;;;8.40;75.28;98722.59;4387773;80;21155;-87
2021/04/22 00:53:49;;;;;;;32.58;21.30;;;;;;;8.37;75.42;98717.88;4425646;80;21181;-87
2021/04/22 00:59:52;;;;;;;38.20;22.98;;;;;;;8.39;75.47;98708.76;4541052;78;21110;-87
2021/04/22 01:05:58;;;;;;;34.30;19.50;;;;;;;8.44;75.40;98712.54;4506143;78;21637;-87
2021/04/22 01:12:02;;;;;;;36.97;22.27;;;;;;;8.37;75.46;98702.88;4452179;80;21562;-88
2021/04/22 01:18:06;;;;;;;35.80;21.65;;;;;;;8.29;75.54;98710.16;4456961;80;21171;-87
2021/04/22 01:24:10;;;;;;;40.70;24.25;;;;;;;8.19;75.76;98713.47;4430334;80;21125;-87
2021/04/22 01:30:17;;;;;;;43.80;25.82;;;;;;;8.12;75.63;98717.47;4383996;81;21109;-87
2021/04/22 01:36:20;;;;;;;43.42;25.82;;;;;;;8.12;76.24;98727.00;4442197;80;21171;-87
2021/04/22 01:42:22;;;;;;;37.65;23.67;;;;;;;8.13;76.31;98721.75;4456838;80;21139;-88
2021/04/22 01:48:24;;;;;;;36.25;20.97;;;;;;;8.19;76.52;98727.11;4456902;80;21145;-87
2021/04/22 01:54:26;;;;;;;41.73;25.00;;;;;;;8.29;76.48;98729.83;4453429;80;21150;-87
2021/04/22 02:00:32;;;;;;;39.95;24.57;;;;;;;8.16;76.42;98714.20;4456081;80;21150;-86
2021/04/22 02:06:34;;;;;;;37.25;22.15;;;;;;;8.27;76.94;98714.42;4457849;80;21304;-87
2021/04/22 02:12:37;;;;;;;36.05;21.40;;;;;;;8.30;76.49;98714.45;4475012;79;21169;-87
2021/04/22 02:18:38;;;;;;;37.00;23.45;;;;;;;8.35;76.98;98711.42;4489307;79;21610;-87
2021/04/22 02:24:40;;;;;;;40.38;23.87;;;;;;;8.39;77.09;98710.12;4464168;79;21150;-88
2021/04/22 02:30:44;;;;;;;36.08;22.35;;;;;;;8.31;77.24;98726.16;4474940;78;21099;-88
2021/04/22 02:36:53;;;;;;;38.23;23.50;;;;;;;8.33;77.82;98721.14;4492900;78;21121;-86
2021/04/22 02:42:59;;;;;;;81.25;44.42;;;;;;;8.30;78.09;98710.37;4489399;78;21129;-87
2021/04/22 02:49:00;;;;;;;85.20;52.23;;;;;;;8.29;78.01;98703.34;4422466;80;21141;-87
2021/04/22 02:55:04;;;;;;;55.88;32.42;;;;;;;8.09;78.73;98687.41;4424581;78;21148;-86
2021/04/22 03:01:06;;;;;;;46.05;26.90;;;;;;;8.16;78.91;98667.09;4391398;80;21153;-87
2021/04/22 03:07:07;;;;;;;63.68;40.03;;;;;;;8.17;79.11;98681.72;4422042;80;21156;-86
2021/04/22 03:13:10;;;;;;;46.02;28.83;;;;;;;8.02;80.49;98673.69;4398234;80;21177;-87
2021/04/22 03:19:13;;;;;;;33.10;23.50;;;;;;;7.91;80.65;98673.49;4434496;79;21134;-89
2021/04/22 03:25:19;;;;;;;41.50;26.35;;;;;;;8.05;83.18;98661.45;4435277;79;21314;-87
2021/04/22 03:31:20;;;;;;;38.75;26.93;;;;;;;7.97;82.80;98663.28;4436545;79;21594;-86
2021/04/22 03:37:22;;;;;;;40.03;25.90;;;;;;;7.83;80.88;98670.44;4439575;79;21121;-87
2021/04/22 03:43:23;;;;;;;38.98;25.68;;;;;;;7.66;81.12;98677.73;4398143;80;21140;-87
2021/04/22 03:49:25;;;;;;;35.03;23.32;;;;;;;7.57;81.07;98676.63;4454034;79;21152;-87
2021/04/22 03:55:26;;;;;;;29.57;20.15;;;;;;;7.53;80.88;98673.63;4444352;79;21267;-87
2021/04/22 04:01:28;;;;;;;32.93;21.57;;;;;;;7.53;80.80;98674.99;4441504;79;21157;-87
2021/04/22 04:07:29;;;;;;;35.60;21.65;;;;;;;7.44;80.89;98682.59;4429372;79;21130;-87
2021/04/22 04:20:17;;;;;;;32.30;21.07;;;;;;;7.19;80.92;98691.66;4435792;79;21170;-87
2021/04/22 04:26:19;;;;;;;27.80;18.57;;;;;;;7.17;81.45;98695.91;4412674;81;21602;-86
2021/04/22 04:32:20;;;;;;;41.10;27.70;;;;;;;7.28;81.79;98703.70;4449114;79;21165;-86
2021/04/22 04:38:21;;;;;;;34.83;23.40;;;;;;;7.40;81.91;98710.34;4447037;79;21148;-86
2021/04/22 04:44:24;;;;;;;33.73;20.40;;;;;;;7.50;82.07;98715.22;4413499;81;21120;-87
2021/04/22 04:50:26;;;;;;;31.10;19.35;;;;;;;7.73;82.06;98729.08;4337054;81;21571;-85
2021/04/22 04:56:28;;;;;;;38.95;23.65;;;;;;;8.00;82.59;98736.15;4493317;79;21146;-86
2021/04/22 05:02:29;;;;;;;32.90;21.02;;;;;;;8.32;82.74;98758.52;4493559;78;21551;-85
2021/04/22 05:08:31;;;;;;;27.20;17.90;;;;;;;8.43;82.47;98751.86;4493369;79;21142;-84
2021/04/22 05:14:33;;;;;;;35.23;21.48;;;;;;;8.62;82.42;98757.23;4493384;79;21296;-85
2021/04/22 05:20:35;;;;;;;39.45;21.25;;;;;;;8.76;82.50;98754.14;4494106;79;21181;-85
2021/04/22 05:26:36;;;;;;;30.02;19.65;;;;;;;8.93;82.05;98767.81;4493330;79;21157;-85
2021/04/22 05:32:39;;;;;;;35.45;22.70;;;;;;;8.97;81.96;98774.89;4493595;79;21622;-85
2021/04/22 05:38:40;;;;;;;34.48;24.18;;;;;;;9.15;82.05;98788.22;4493538;79;21614;-86
2021/04/22 05:44:42;;;;;;;44.30;26.73;;;;;;;9.45;81.91;98797.20;4493578;79;21709;-85
2021/04/22 05:50:44;;;;;;;37.38;25.62;;;;;;;9.60;81.54;98795.41;4494015;78;21146;-86
2021/04/22 05:56:47;;;;;;;37.75;23.87;;;;;;;9.63;81.37;98802.88;4493873;79;21153;-86
2021/04/22 06:02:48;;;;;;;45.33;26.05;;;;;;;9.64;81.19;98807.75;4498242;79;21272;-85
2021/04/22 06:08:50;;;;;;;36.93;24.90;;;;;;;9.78;81.17;98813.38;4490736;79;21158;-86
2021/04/22 06:14:51;;;;;;;38.08;23.50;;;;;;;9.96;80.77;98813.77;4463185;79;21186;-85
2021/04/22 06:20:53;;;;;;;43.30;23.40;;;;;;;10.10;80.47;98818.65;4462476;79;21142;-85
2021/04/22 06:26:55;;;;;;;35.95;22.48;;;;;;;10.04;79.66;98822.86;4463068;80;21416;-85
2021/04/22 06:32:57;;;;;;;32.73;22.10;;;;;;;10.04;79.48;98830.46;4462836;80;21599;-86
2021/04/22 06:38:59;;;;;;;37.85;24.60;;;;;;;10.20;79.34;98826.16;4466324;79;21140;-86
2021/04/22 06:45:00;;;;;;;35.05;22.95;;;;;;;10.71;79.35;98837.37;4468184;80;21302;-85
2021/04/22 06:51:03;;;;;;;35.55;24.07;;;;;;;11.20;78.49;98836.93;4460437;80;21098;-86
2021/04/22 06:57:06;;;;;;;35.25;23.65;;;;;;;11.52;78.32;98833.00;4467333;79;21149;-86
2021/04/22 07:03:07;;;;;;;36.33;23.92;;;;;;;11.81;77.93;98839.61;4479485;78;21160;-85
2021/04/22 07:09:09;;;;;;;32.42;23.60;;;;;;;12.10;77.49;98850.09;4455051;78;21193;-85
2021/04/22 07:15:13;;;;;;;36.38;23.52;;;;;;;12.49;76.93;98867.42;4428662;80;21154;-85
2021/04/22 07:21:14;;;;;;;41.75;22.95;;;;;;;13.02;75.87;98882.00;4428872;80;21567;-85
2021/04/22 07:27:16;;;;;;;38.20;25.27;;;;;;;12.78;74.73;98888.84;4472993;78;21583;-85
2021/04/22 07:33:17;;;;;;;34.40;24.02;;;;;;;12.20;73.46;98904.23;4450978;78;21162;-85
2021/04/22 07:39:19;;;;;;;41.08;24.67;;;;;;;11.74;74.72;98903.25;4373132;81;21146;-85
2021/04/22 07:45:28;;;;;;;34.95;24.75;;;;;;;11.51;74.03;98910.33;4378341;81;21595;-85
2021/04/22 07:51:30;;;;;;;33.98;22.42;;;;;;;11.37;74.23;98917.70;4389140;81;21588;-85
2021/04/22 07:57:31;;;;;;;35.28;23.40;;;;;;;11.17;73.45;98929.48;4476866;78;21158;-86
2021/04/22 08:03:33;;;;;;;37.45;25.15;;;;;;;10.79;73.39;98932.09;4426479;80;21153;-85
2021/04/22 08:09:34;;;;;;;41.50;26.37;;;;;;;10.68;73.93;98944.13;4465579;79;21593;-86
2021/04/22 08:15:39;;;;;;;44.27;27.07;;;;;;;10.51;73.80;98958.40;4502419;79;21169;-85
2021/04/22 08:21:41;;;;;;;45.05;29.82;;;;;;;10.37;74.01;98957.67;4472139;79;21167;-84
2021/04/22 08:27:42;;;;;;;46.85;28.65;;;;;;;10.40;74.44;98965.70;4421218;80;21140;-85
2021/04/22 08:33:47;;;;;;;41.08;26.55;;;;;;;10.32;74.24;98962.11;4422616;80;21179;-85
2021/04/22 08:39:49;;;;;;;38.15;25.75;;;;;;;10.29;74.50;98966.95;4422804;80;21166;-84
2021/04/22 08:45:52;;;;;;;42.27;29.10;;;;;;;10.03;74.00;98982.63;4423113;80;21157;-85
2021/04/22 08:51:55;;;;;;;29.77;21.75;;;;;;;9.51;74.13;98997.92;4421308;80;21853;-85
2021/04/22 08:58:01;;;;;;;19.57;14.58;;;;;;;8.99;74.62;99021.64;4422850;80;21163;-85
2021/04/22 09:04:05;;;;;;;21.48;16.25;;;;;;;8.71;74.47;99041.00;4422142;80;21148;-85
2021/04/22 09:10:10;;;;;;;11.63;9.23;;;;;;;8.35;74.47;99052.36;4461278;79;21383;-85
2021/04/22 09:16:19;;;;;;;12.82;9.05;;;;;;;8.05;74.30;99072.33;4493369;79;21149;-85
2021/04/22 09:22:40;;;;;;;13.30;9.63;;;;;;;7.83;74.48;99094.20;4470302;79;21147;-88
2021/04/22 09:28:46;;;;;;;17.02;12.45;;;;;;;7.56;74.71;99097.26;4501586;79;21142;-87
2021/04/22 09:34:55;;;;;;;16.40;11.57;;;;;;;7.36;75.43;99110.58;4454451;79;21182;-86
2021/04/22 09:41:14;;;;;;;14.58;10.38;;;;;;;7.19;75.51;99112.84;4449363;79;21608;-86
2021/04/22 09:47:23;;;;;;;12.65;9.08;;;;;;;7.12;76.13;99120.83;4461559;79;21684;-86
2021/04/22 09:53:26;;;;;;;10.13;7.40;;;;;;;6.89;76.39;99114.38;4457464;79;21141;-87
2021/04/22 09:59:28;;;;;;;13.32;8.98;;;;;;;6.51;76.44;99130.39;4453129;79;21125;-87
2021/04/22 10:05:32;;;;;;;14.30;9.58;;;;;;;6.44;77.24;99134.28;4462945;79;21719;-87
2021/04/22 10:11:46;;;;;;;15.15;9.03;;;;;;;6.54;77.80;99146.02;4468486;78;21150;-87
2021/04/22 10:17:58;;;;;;;16.17;8.28;;;;;;;6.62;77.81;99143.17;4444938;78;21151;-87
2021/04/22 10:24:07;;;;;;;15.28;7.95;;;;;;;6.77;77.87;99133.46;4460818;78;21139;-87
2021/04/22 10:30:13;;;;;;;16.15;7.87;;;;;;;7.12;78.29;99136.61;4475151;78;21174;-87
2021/04/22 10:36:19;;;;;;;13.47;7.13;;;;;;;7.09;78.03;99122.34;4465764;78;21130;-87
2021/04/22 10:42:21;;;;;;;17.90;8.30;;;;;;;7.12;77.68;99123.55;4460482;78;21383;-87
2021/04/22 10:48:23;;;;;;;19.05;11.53;;;;;;;7.17;77.87;99134.20;4469018;78;21158;-88
2021/04/22 10:54:25;;;;;;;16.37;11.20;;;;;;;6.94;78.39;99122.30;4470835;79;21862;-88
2021/04/22 11:00:30;;;;;;;17.40;10.65;;;;;;;6.74;79.58;99138.23;4463906;79;21143;-88
2021/04/22 11:06:36;;;;;;;15.08;8.95;;;;;;;6.77;79.41;99142.42;4443869;79;21576;-87
2021/04/22 11:12:38;;;;;;;19.97;10.53;;;;;;;6.74;78.97;99154.00;4494212;78;21146;-89
2021/04/22 11:18:44;;;;;;;21.62;10.50;;;;;;;6.93;79.42;99146.55;4492104;78;21684;-90
2021/04/22 11:25:05;;;;;;;21.73;13.78;;;;;;;7.41;79.52;99142.20;4492004;78;21198;-89
2021/04/22 11:31:17;;;;;;;22.95;13.38;;;;;;;7.80;79.37;99132.50;4463609;78;21118;-89
2021/04/22 11:37:27;;;;;;;24.98;12.40;;;;;;;8.07;78.08;99129.43;4340041;81;21854;-89
2021/04/22 11:43:31;;;;;;;17.65;10.38;;;;;;;8.02;78.59;99139.23;4349362;81;21174;-90
2021/04/22 11:49:32;;;;;;;16.57;11.70;;;;;;;8.29;78.35;99141.07;4360088;81;21103;-88
2021/04/22 11:55:38;;;;;;;16.10;10.28;;;;;;;8.11;78.14;99133.05;4315231;82;21183;-89
2021/04/22 12:01:42;;;;;;;16.17;10.13;;;;;;;8.16;77.79;99128.66;4367445;79;21112;-89
2021/04/22 12:07:46;;;;;;;19.23;11.18;;;;;;;7.84;77.73;99121.70;4423554;78;21192;-88
2021/04/22 12:13:49;;;;;;;17.05;10.43;;;;;;;8.03;78.41;99125.25;4471779;79;21171;-88
2021/04/22 12:20:07;;;;;;;19.35;12.10;;;;;;;8.13;77.69;99117.70;4492668;79;21738;-90
2021/04/22 12:26:33;;;;;;;25.50;14.28;;;;;;;8.10;77.64;99112.95;4504184;79;21161;-88
2021/04/22 12:32:35;;;;;;;23.47;13.23;;;;;;;8.44;76.74;99082.94;4506373;79;21136;-89
2021/04/22 12:38:37;;;;;;;27.27;14.63;;;;;;;8.44;76.74;99082.94;4497988;79;21297;-89
2021/04/22 12:44:44;;;;;;;27.48;14.07;;;;;;;8.91;76.67;99097.73;4499294;79;21110;-89
2021/04/22 12:50:47;;;;;;;;;;;;;;;9.30;75.88;99091.05;4481717;79;21144;-88
2021/04/22 12:56:49;;;;;;;19.20;12.63;;;;;;;9.73;74.92;99089.22;4494219;79;20145;-89
2021/04/22 13:02:50;;;;;;;32.48;16.07;;;;;;;9.94;70.34;99086.03;4493804;79;21261;-89
2021/04/22 13:08:58;;;;;;;22.60;11.63;;;;;;;10.08;74.04;99095.84;4497976;79;21309;-92
2021/04/22 13:15:02;;;;;;;23.50;12.37;;;;;;;10.27;71.76;99088.89;4511369;79;21155;-90
2021/04/22 13:21:07;;;;;;;20.90;12.70;;;;;;;10.51;72.73;99080.19;4495156;79;21144;-90
2021/04/22 13:27:13;;;;;;;22.55;10.93;;;;;;;10.86;68.90;99080.05;4493644;79;21589;-91
2021/04/22 13:33:25;;;;;;;19.25;10.25;;;;;;;11.12;71.29;99080.50;4494613;79;21163;-89
2021/04/22 13:39:34;;;;;;;19.17;9.53;;;;;;;11.62;70.43;99067.45;4494468;79;21831;-90
2021/04/22 13:45:36;;;;;;;17.02;10.25;;;;;;;11.95;68.48;99061.09;4494342;79;21144;-89
2021/04/22 13:51:40;;;;;;;20.68;11.03;;;;;;;12.10;66.47;99047.65;4494310;79;21132;-90
2021/04/22 13:57:43;;;;;;;20.23;10.45;;;;;;;12.41;67.25;99037.42;4494755;79;21615;-91
2021/04/22 14:03:46;;;;;;;18.25;9.80;;;;;;;12.54;65.78;99033.16;4494526;79;21159;-91
2021/04/22 14:09:48;;;;;;;19.95;10.82;;;;;;;12.43;62.46;99033.70;4491829;78;21647;-90
2021/04/22 14:15:49;;;;;;;20.15;9.55;;;;;;;12.57;63.83;99029.03;4494444;79;21171;-88
2021/04/22 14:21:52;;;;;;;20.65;9.70;;;;;;;12.73;62.43;99027.35;4493586;79;21148;-89
2021/04/22 14:27:53;;;;;;;17.57;9.00;;;;;;;12.56;62.45;99018.44;4493924;79;21148;-90
2021/04/22 14:33:55;;;;;;;17.75;8.28;;;;;;;12.44;62.32;99024.29;4493967;78;21171;-88
2021/04/22 14:39:57;;;;;;;17.90;8.38;;;;;;;12.28;61.58;99013.64;4494350;79;21123;-89
2021/04/22 14:45:58;;;;;;;17.67;8.95;;;;;;;11.97;60.15;99013.47;4493946;78;21163;-90
2021/04/22 14:52:00;;;;;;;18.17;8.05;;;;;;;11.74;60.46;99014.31;4493856;79;21719;-90
2021/04/22 14:58:01;;;;;;;20.40;8.38;;;;;;;11.81;58.34;99013.77;4518668;78;21567;-93
2021/04/22 15:04:04;;;;;;;20.25;9.48;;;;;;;11.75;58.51;99013.92;4575224;78;21118;-88
2021/04/22 15:10:07;;;;;;;23.42;9.53;;;;;;;11.87;58.21;99007.35;4574548;78;21165;-91
2021/04/22 15:16:08;;;;;;;25.35;8.38;;;;;;;11.80;55.02;98998.48;4575382;78;21162;-89
2021/04/22 15:22:11;;;;;;;15.28;6.97;;;;;;;11.82;56.67;99003.02;4575251;78;21284;-91
2021/04/22 15:28:19;;;;;;;15.95;7.47;;;;;;;11.91;57.71;99005.41;4574484;77;21122;-88
2021/04/22 15:34:21;;;;;;;17.60;6.33;;;;;;;11.76;57.40;99010.61;4575022;78;21166;-89
2021/04/22 15:40:25;;;;;;;13.50;4.90;;;;;;;11.74;56.33;99011.56;4575270;78;21539;-89
2021/04/22 15:46:27;;;;;;;17.95;6.53;;;;;;;11.67;55.88;99023.27;4575100;77;21571;-88
2021/04/22 15:52:28;;;;;;;15.85;7.70;;;;;;;11.52;56.23;99028.42;4575827;78;21137;-88
2021/04/22 15:58:30;;;;;;;8.98;3.42;;;;;;;11.32;55.51;99038.63;4575046;78;21161;-87
2021/04/22 16:04:31;;;;;;;8.05;4.30;;;;;;;11.10;54.00;99043.13;4520799;78;21134;-89
2021/04/22 16:10:33;;;;;;;11.65;5.58;;;;;;;10.89;51.86;99045.64;4473764;79;21212;-89
2021/04/22 16:16:36;;;;;;;9.10;4.25;;;;;;;10.73;50.45;99047.80;4462698;80;21170;-90
2021/04/22 16:22:38;;;;;;;9.00;4.20;;;;;;;10.58;50.02;99059.20;4461953;80;21135;-88
2021/04/22 16:28:40;;;;;;;12.85;5.83;;;;;;;10.41;49.61;99057.60;4461696;79;21134;-89
2021/04/22 16:34:42;;;;;;;10.30;4.78;;;;;;;10.21;49.91;99067.11;4457709;80;21170;-88
2021/04/22 16:40:43;;;;;;;9.10;4.15;;;;;;;10.03;49.21;99069.56;4461563;79;21557;-89
2021/04/22 16:46:46;;;;;;;7.90;4.33;;;;;;;9.83;48.81;99075.51;4464067;79;21134;-87
2021/04/22 16:52:49;;;;;;;12.82;5.22;;;;;;;9.64;48.67;99079.13;4467377;80;21154;-89
2021/04/22 16:58:51;;;;;;;14.90;7.25;;;;;;;9.44;48.53;99079.77;4467394;79;21190;-89
2021/04/22 17:04:53;;;;;;;21.73;11.63;;;;;;;9.27;48.46;99090.41;4468479;79;21155;-88
2021/04/22 17:10:54;;;;;;;21.25;10.43;;;;;;;9.07;48.19;99092.95;4493644;78;21157;-89
2021/04/22 17:16:56;;;;;;;11.85;5.47;;;;;;;8.89;48.36;99092.64;4545068;78;21126;-87
2021/04/22 17:22:59;;;;;;;7.87;3.58;;;;;;;8.72;48.76;99100.48;4545100;78;21124;-89
2021/04/22 17:29:02;;;;;;;11.93;4.17;;;;;;;8.41;48.96;99101.98;4545130;78;21135;-88
2021/04/22 17:35:05;;;;;;;12.55;5.10;;;;;;;8.02;49.06;99116.66;4545041;78;21580;-89
2021/04/22 17:41:07;;;;;;;8.90;4.05;;;;;;;7.72;49.96;99125.30;4544766;78;21162;-87
2021/04/22 17:47:08;;;;;;;11.78;4.83;;;;;;;7.46;51.32;99134.58;4544738;78;21111;-88
2021/04/22 17:53:14;;;;;;;9.80;4.78;;;;;;;7.22;52.31;99140.75;4545399;78;21130;-87
2021/04/22 17:59:16;;;;;;;13.15;5.90;;;;;;;7.00;52.98;99144.05;4545075;78;21146;-88
2021/04/22 18:05:23;;;;;;;18.37;7.00;;;;;;;6.75;52.73;99148.77;4545769;78;21139;-88
2021/04/22 18:11:26;;;;;;;15.10;6.90;;;;;;;6.49;50.94;99155.77;4544579;78;21540;-88
2021/04/22 18:17:28;;;;;;;17.62;8.43;;;;;;;6.31;51.75;99166.91;4546024;78;21174;-87
2021/04/22 18:23:29;;;;;;;17.30;8.03;;;;;;;6.26;51.73;99178.02;4544701;78;21138;-87
2021/04/22 18:29:31;;;;;;;18.70;7.90;;;;;;;6.10;51.16;99183.94;4545841;78;21294;-88
2021/04/22 18:35:33;;;;;;;23.15;10.08;;;;;;;6.05;51.82;99188.23;4545709;78;21162;-87
2021/04/22 18:41:35;;;;;;;23.80;10.82;;;;;;;6.03;52.46;99197.28;4546152;78;21146;-85
2021/04/22 18:47:37;;;;;;;28.07;11.97;;;;;;;6.01;51.98;99204.20;4545358;78;21127;-86
2021/04/22 18:53:39;;;;;;;26.12;12.00;;;;;;;5.91;52.64;99221.75;4545557;78;21186;-86
2021/04/22 18:59:41;;;;;;;27.15;11.03;;;;;;;5.81;52.78;99224.09;4545576;78;21126;-86
2021/04/22 19:05:43;;;;;;;24.40;10.72;;;;;;;5.64;52.29;99228.34;4545888;78;21827;-87
2021/04/22 19:11:46;;;;;;;24.43;11.03;;;;;;;5.64;54.91;99241.91;4554991;78;21170;-87
2021/04/22 19:17:48;;;;;;;28.25;12.60;;;;;;;5.63;53.38;99241.14;4570956;77;21194;-87
2021/04/22 19:23:50;;;;;;;36.50;15.03;;;;;;;5.69;53.11;99249.86;4565992;78;21166;-89
2021/04/22 19:29:53;;;;;;;35.00;15.40;;;;;;;5.72;53.38;99247.82;4565461;77;21651;-89
2021/04/22 19:35:55;;;;;;;45.52;20.50;;;;;;;5.65;55.53;99259.27;4565461;78;21174;-86
2021/04/22 19:41:59;;;;;;;46.60;20.20;;;;;;;5.55;54.69;99269.73;4566688;78;21142;-88
2021/04/22 19:48:09;;;;;;;46.53;19.00;;;;;;;5.66;54.53;99269.54;4566353;78;21194;-87
2021/04/22 19:54:11;;;;;;;41.80;18.87;;;;;;;5.77;55.56;99277.50;4566901;78;21201;-86
2021/04/22 20:00:16;;;;;;;42.35;18.40;;;;;;;5.76;54.78;99284.84;4568353;77;21133;-85
2021/04/22 20:06:19;;;;;;;46.92;20.45;;;;;;;5.85;54.76;99284.80;4568421;78;21135;-87
2021/04/22 20:12:22;;;;;;;40.70;17.55;;;;;;;5.94;55.80;99285.48;4562923;78;21169;-87
2021/04/22 20:18:28;;;;;;;44.73;18.10;;;;;;;5.97;57.84;99292.95;4555102;78;21131;-87
2021/04/22 20:24:31;;;;;;;52.03;18.85;;;;;;;5.95;58.49;99304.16;4554504;78;21151;-87
2021/04/22 20:30:33;;;;;;;39.83;16.30;;;;;;;5.90;58.20;99303.02;4555405;78;21115;-86
2021/04/22 20:36:34;;;;;;;38.53;14.75;;;;;;;5.93;58.80;99307.00;4555888;78;21586;-88
2021/04/22 20:42:38;;;;;;;41.92;16.27;;;;;;;5.93;58.97;99313.23;4555884;78;21194;-87
2021/04/22 20:48:40;;;;;;;40.05;17.02;;;;;;;5.97;59.27;99329.64;4551846;78;21138;-87
2021/04/22 20:54:42;;;;;;;32.65;14.23;;;;;;;5.97;58.59;99341.87;4555793;78;21170;-87
2021/04/22 21:00:43;;;;;;;40.17;15.90;;;;;;;5.94;58.10;99336.55;4556435;78;21111;-88
2021/04/22 21:06:45;;;;;;;36.25;13.83;;;;;;;5.87;58.32;99343.09;4556467;78;21407;-87
2021/04/22 21:12:47;;;;;;;26.12;11.28;;;;;;;5.74;58.56;99346.88;4554813;78;21122;-88
2021/04/22 21:18:49;;;;;;;24.25;10.40;;;;;;;5.71;58.34;99350.82;4548275;78;21154;-87
2021/04/22 21:24:51;;;;;;;35.58;13.32;;;;;;;5.67;59.10;99362.14;4548234;78;21142;-86
2021/04/22 21:30:53;;;;;;;34.50;11.63;;;;;;;5.59;60.30;99371.92;4548893;78;21133;-87
2021/04/22 21:36:55;;;;;;;26.80;11.65;;;;;;;5.56;59.87;99371.82;4548412;78;21576;-86
2021/04/22 21:42:56;;;;;;;26.80;11.68;;;;;;;5.53;61.12;99373.27;4548274;78;21126;-87
2021/04/22 21:48:59;;;;;;;27.32;11.20;;;;;;;5.52;60.50;99370.33;4548176;78;21579;-87
2021/04/22 21:55:02;;;;;;;24.57;9.23;;;;;;;5.51;61.73;99393.16;4549188;78;21174;-87
2021/04/22 22:01:07;;;;;;;20.82;9.05;;;;;;;5.43;60.93;99398.67;4548220;78;21143;-86
2021/04/22 22:07:09;;;;;;;23.40;9.88;;;;;;;5.34;61.07;99401.44;4548427;78;21575;-85
2021/04/22 22:13:10;;;;;;;18.98;8.75;;;;;;;5.25;61.19;99406.14;4554240;78;21639;-86
2021/04/22 22:19:14;;;;;;;28.02;10.43;;;;;;;5.14;61.39;99408.23;4556360;78;21131;-88
2021/04/22 22:25:19;;;;;;;30.92;10.72;;;;;;;4.79;61.09;99411.11;4556240;78;21150;-87
2021/04/22 22:31:29;;;;;;;23.18;9.60;;;;;;;4.62;61.91;99422.04;4556316;78;21135;-86
2021/04/22 22:37:30;;;;;;;27.35;10.40;;;;;;;4.47;62.49;99409.03;4556235;78;21130;-86
2021/04/22 22:43:33;;;;;;;28.40;10.30;;;;;;;4.33;61.84;99412.51;4556308;78;21111;-86
2021/04/22 22:49:35;;;;;;;35.45;12.40;;;;;;;4.12;61.76;99408.88;4555465;78;21568;-87
2021/04/22 22:55:37;;;;;;;32.53;12.10;;;;;;;3.96;62.08;99409.73;4555257;78;21599;-86
2021/04/22 23:01:38;;;;;;;45.83;14.85;;;;;;;3.88;62.32;99415.95;4556110;78;21145;-87
2021/04/22 23:07:42;;;;;;;68.42;20.88;;;;;;;3.78;62.57;99410.30;4555303;78;21165;-86
2021/04/22 23:13:44;;;;;;;41.35;14.40;;;;;;;3.59;62.54;99407.13;4555655;78;21192;-86
2021/04/22 23:19:45;;;;;;;48.92;18.48;;;;;;;3.47;63.56;99406.16;4555841;78;21131;-87
2021/04/22 23:25:47;;;;;;;60.48;22.15;;;;;;;3.39;63.13;99406.95;4555720;78;21138;-86
2021/04/22 23:31:48;;;;;;;34.20;14.23;;;;;;;3.27;63.69;99407.60;4555341;78;21151;-86
2021/04/22 23:37:51;;;;;;;41.15;15.88;;;;;;;3.27;63.44;99410.85;4555223;78;21154;-87
2021/04/22 23:43:52;;;;;;;36.60;13.22;;;;;;;3.18;63.92;99411.63;4555463;78;21106;-86
2021/04/22 23:49:54;;;;;;;35.63;13.68;;;;;;;2.98;64.29;99410.08;4555160;78;21138;-87
2021/04/22 23:55:56;;;;;;;30.88;12.60;;;;;;;3.04;65.21;99409.62;4555624;78;21126;-86
